• Join FlightAware (Why Join?)
  • Login
  • US Flag 
09:26AM EDT


 

Airport Tracker/Info


-or-


 

Live Flight TrackerFlight Track Log ✈ N27XP ✈ 07-Jun-2013 ✈ KBHM - KSOP

Flight Track Log - Related Links

Times and Time Zones

All times are in EDT time to prevent confusion due to time zone crossing. See the N27XP flight status page for this flight to view local times or setup timezone preferences in your user account.

Time Position Orientation Groundspeed Altitude Reporting Facility
EDT Latitude Longitude Course Direction KTS MPH feet Rate Location/Type
04:36PM 33.5661 -86.7511 56° Northeast 169 194 1,200  Level Atlanta Center
04:37PM 33.5878 -86.7119 56° Northeast 205 236 3,500 2,760 Climbing Atlanta Center
04:38PM 33.5794 -86.6219 96° East 243 280 6,600 2,520 Climbing Atlanta Center
04:39PM 33.5667 -86.5294 99° East 265 305 9,000 2,160 Climbing Atlanta Center
04:40PM 33.5692 -86.4022 89° East 319 367 11,000 2,160 Climbing Atlanta Center
04:41PM 33.5733 -86.2828 88° East 347 399 13,400 1,980 Climbing Atlanta Center
04:42PM 33.5756 -86.1681 89° East 369 425 15,000 1,620 Climbing Atlanta Center
04:43PM 33.5797 -86.0436 88° East 369 425 16,700 900 Climbing Atlanta Center
04:44PM 33.5858 -85.9092 87° East 384 442 16,900 120 Climbing Atlanta Center
04:45PM 33.5964 -85.7597 85° East 395 455 17,000 180 Climbing Atlanta Center
04:46PM 33.5961 -85.6250 90° East 395 455 17,300 960 Climbing Atlanta Center
04:47PM 33.6019 -85.4928 87° East 402 463 19,000 2,400 Climbing Atlanta Center
04:48PM 33.6033 -85.3731 89° East 375 432 22,100 2,580 Climbing Atlanta Center
04:49PM 33.6089 -85.2561 87° East 358 412 24,200 1,980 Climbing Atlanta Center
04:50PM 33.6119 -85.1389 88° East 352 405 26,100 1,500 Climbing Atlanta Center
04:51PM 33.6150 -85.0142 88° East 365 420 27,200 1,080 Climbing Atlanta Center
04:52PM 33.6181 -84.8869 88° East 374 430 28,300 900 Climbing Atlanta Center
04:53PM 33.6211 -84.7422 89° East 397 457 29,100 720 Climbing Atlanta Center
04:54PM 33.6239 -84.6075 89° East 409 471 29,800 600 Climbing Atlanta Center
04:55PM 33.6203 -84.4803 92° East 421 484 30,300 480 Climbing Atlanta Center
04:56PM 33.6228 -84.3308 89° East 426 490 30,800 600 Climbing Atlanta Center
04:57PM 33.6314 -84.1611 86° East 454 522 31,500 540 Climbing Atlanta Center
04:58PM 33.6419 -84.0214 85° East 467 537 31,900 360 Climbing Atlanta Center
04:59PM 33.6606 -83.8692 82° East 460 529 32,300 420 Climbing Atlanta Center
05:00PM 33.6875 -83.7142 78° East 465 535 32,800 300 Climbing Atlanta Center
05:01PM 33.7078 -83.5594 81° East 470 541 33,000 60 Climbing Atlanta Center
05:02PM 33.7342 -83.3994 79° East 476 548 33,000  Level Atlanta Center
05:03PM 33.7667 -83.2442 76° East 476 548 33,000  Level Atlanta Center
05:04PM 33.8178 -83.0936 68° East 476 548 33,000 -300 Level Atlanta Center
05:05PM 33.8772 -82.9578 62° Northeast 470 541 32,400 -1,320 Descending Atlanta Center
05:06PM 33.9447 -82.8069 62° Northeast 465 535 30,400 -2,040 Descending Atlanta Center
05:07PM 34.0036 -82.6681 63° Northeast 465 535 28,400 -1,740 Descending Atlanta Center
05:08PM 34.0625 -82.5317 62° Northeast 454 522 27,000 -720 Descending Atlanta Center
05:09PM 34.1150 -82.3853 67° East 454 522 27,000  Level Atlanta Center
05:10PM 34.1675 -82.2561 64° Northeast 464 534 27,000 -900 Level Atlanta Center
05:11PM 34.2258 -82.1119 64° Northeast 469 540 25,300 -1,020 Descending Atlanta Center
05:12PM 34.2839 -81.9622 65° Northeast 469 540 25,000 -180 Descending Atlanta Center
05:13PM 34.3439 -81.8172 63° Northeast 469 540 25,000  Level Atlanta Center
05:14PM 34.4017 -81.6722 64° Northeast 469 540 25,000  Level Atlanta Center
05:15PM 34.4594 -81.5294 64° Northeast 469 540 25,000  Level Atlanta Center
05:16PM 34.5169 -81.3842 64° Northeast 469 540 25,000 -480 Level Atlanta Center
05:17PM 34.5822 -81.2256 63° Northeast 469 540 24,100 -540 Descending Atlanta Center
05:18PM 34.6392 -81.0772 65° Northeast 474 545 24,000 -240 Descending Atlanta Center
05:19PM 34.6964 -80.9364 64° Northeast 473 544 23,700 -1,440 Descending Atlanta Center
05:20PM 34.7453 -80.8081 65° Northeast 470 541 21,400 -2,460 Descending Atlanta Center
05:21PM 34.8019 -80.6669 64° Northeast 457 526 19,000 -2,520 Descending Atlanta Center
05:22PM 34.8525 -80.5383 64° Northeast 423 487 16,400 -2,640 Descending Atlanta Center
05:23PM 34.8992 -80.4222 64° Northeast 377 434 13,700 -2,340 Descending Atlanta Center
05:24PM 34.9414 -80.2989 67° East 361 415 11,500 -1,740 Descending Atlanta Center
05:25PM 34.9803 -80.2008 64° Northeast 327 376 10,100 -1,200 Descending Atlanta Center
05:26PM 35.0147 -80.1078 66° East 305 351 9,200 -600 Descending Atlanta Center
05:27PM 35.0367 -80.0106 75° East 300 345 9,000 -600 Descending Atlanta Center
05:28PM 35.0481 -79.9161 82° East 305 351 8,000 -1,020 Descending Atlanta Center